createdAt,value
2022-12-08T00:01:52.044Z,11.70
2022-12-08T00:05:02.825Z,11.73
2022-12-08T00:08:09.598Z,13.00
2022-12-08T00:11:04.532Z,12.53
2022-12-08T00:13:55.177Z,14.00
2022-12-08T00:16:48.999Z,13.40
2022-12-08T00:19:42.928Z,13.87
2022-12-08T00:22:32.326Z,14.90
2022-12-08T00:25:22.039Z,15.20
2022-12-08T00:28:14.511Z,14.10
2022-12-08T00:33:45.434Z,14.70
2022-12-08T00:36:34.200Z,15.40
2022-12-08T00:39:24.803Z,15.10
2022-12-08T00:42:13.426Z,15.20
2022-12-08T00:45:07.573Z,14.77
2022-12-08T00:47:58.449Z,13.30
2022-12-08T00:50:51.290Z,13.83
2022-12-08T00:53:42.609Z,13.40
2022-12-08T00:56:31.248Z,13.20
2022-12-08T00:59:24.659Z,12.63
2022-12-08T01:02:18.993Z,13.00
2022-12-08T01:05:09.307Z,12.40
2022-12-08T01:07:57.926Z,11.90
2022-12-08T01:10:46.589Z,12.40
2022-12-08T01:13:39.642Z,11.77
2022-12-08T01:16:34.261Z,11.53
2022-12-08T01:19:30.710Z,10.83
2022-12-08T01:22:19.359Z,10.30
2022-12-08T01:25:08.193Z,9.53
2022-12-08T01:27:56.844Z,9.47
2022-12-08T01:30:47.177Z,8.73
2022-12-08T01:33:35.807Z,10.03
2022-12-08T01:36:29.295Z,9.83
2022-12-08T01:39:18.527Z,9.50
2022-12-08T01:42:08.367Z,9.20
2022-12-08T01:44:59.170Z,8.63
2022-12-08T01:47:50.056Z,8.63
2022-12-08T01:50:40.208Z,8.60
2022-12-08T01:53:35.728Z,8.53
2022-12-08T01:56:35.470Z,8.17
2022-12-08T01:59:25.410Z,8.87
2022-12-08T02:02:16.475Z,8.70
2022-12-08T02:05:05.396Z,8.43
2022-12-08T02:07:54.463Z,7.90
2022-12-08T02:10:52.449Z,7.60
2022-12-08T02:13:42.507Z,6.40
2022-12-08T02:16:38.504Z,5.83
2022-12-08T02:19:44.539Z,5.47
2022-12-08T02:22:36.753Z,5.70
2022-12-08T02:25:30.068Z,6.30
2022-12-08T02:28:32.247Z,5.87
2022-12-08T02:31:27.371Z,7.23
2022-12-08T02:34:25.701Z,6.70
2022-12-08T02:37:20.771Z,6.20
2022-12-08T02:40:11.702Z,6.80
2022-12-08T02:43:05.299Z,7.00
2022-12-08T02:45:55.769Z,6.73
2022-12-08T02:48:44.428Z,6.20
2022-12-08T02:51:34.626Z,6.73
2022-12-08T02:54:25.033Z,6.80
2022-12-08T02:57:24.539Z,6.50
2022-12-08T03:00:30.961Z,6.70
2022-12-08T03:03:32.983Z,6.90
2022-12-08T03:06:26.731Z,6.80
2022-12-08T03:09:21.937Z,6.10
2022-12-08T03:12:15.696Z,6.53
2022-12-08T03:15:11.572Z,6.60
2022-12-08T03:18:03.869Z,6.77
2022-12-08T03:20:52.755Z,7.10
2022-12-08T03:23:44.262Z,6.77
2022-12-08T03:26:36.386Z,6.57
2022-12-08T03:29:29.531Z,6.27
2022-12-08T03:32:25.100Z,6.27
2022-12-08T03:35:15.829Z,5.50
2022-12-08T03:38:10.675Z,5.70
2022-12-08T03:41:20.432Z,6.10
2022-12-08T03:44:13.152Z,5.10
2022-12-08T03:47:04.768Z,4.90
2022-12-08T03:49:53.470Z,5.60
2022-12-08T03:52:51.034Z,5.83
2022-12-08T03:55:39.614Z,5.57
2022-12-08T03:58:37.684Z,5.00
2022-12-08T04:01:27.722Z,4.67
2022-12-08T04:04:18.909Z,4.73
2022-12-08T04:07:08.578Z,5.40
2022-12-08T04:10:00.194Z,4.67
2022-12-08T04:12:48.704Z,5.47
2022-12-08T04:15:40.319Z,5.40
2022-12-08T04:18:32.193Z,4.93
2022-12-08T04:21:22.005Z,5.63
2022-12-08T04:24:17.962Z,5.20
2022-12-08T04:27:12.083Z,5.00
2022-12-08T04:30:00.615Z,5.20
2022-12-08T04:32:50.441Z,4.43
2022-12-08T04:35:40.348Z,4.80
2022-12-08T04:38:30.572Z,4.90
2022-12-08T04:41:19.139Z,5.20
2022-12-08T04:44:07.941Z,4.50
2022-12-08T04:47:02.877Z,4.80
2022-12-08T04:49:53.611Z,4.80
2022-12-08T04:52:45.676Z,3.80
2022-12-08T04:55:34.264Z,3.77
2022-12-08T04:58:27.212Z,4.00
2022-12-08T05:01:16.181Z,3.87
2022-12-08T05:04:11.218Z,4.00
2022-12-08T05:07:01.405Z,3.63
2022-12-08T05:09:51.267Z,4.17
2022-12-08T05:12:43.738Z,3.87
2022-12-08T05:15:32.362Z,4.27
2022-12-08T05:18:20.986Z,3.70
2022-12-08T05:21:11.937Z,3.80
2022-12-08T05:24:00.462Z,3.47
2022-12-08T05:26:50.430Z,3.50
2022-12-08T05:29:41.947Z,3.10
2022-12-08T05:32:34.532Z,3.47
2022-12-08T05:35:23.069Z,4.20
2022-12-08T05:38:14.619Z,3.80
2022-12-08T05:41:07.867Z,3.80
2022-12-08T05:43:57.907Z,3.47
2022-12-08T05:46:48.565Z,3.90
2022-12-08T05:49:38.165Z,4.03
2022-12-08T05:52:29.985Z,3.60
2022-12-08T05:55:20.950Z,3.80
2022-12-08T05:58:14.356Z,3.53
2022-12-08T06:01:06.919Z,3.77
2022-12-08T06:03:55.995Z,3.80
2022-12-08T06:06:44.584Z,3.63
2022-12-08T06:09:35.075Z,3.47
2022-12-08T06:12:26.989Z,3.20
2022-12-08T06:15:21.157Z,3.00
2022-12-08T06:18:12.690Z,2.80
2022-12-08T06:21:10.809Z,2.70
2022-12-08T06:24:03.457Z,2.30
2022-12-08T06:26:52.203Z,2.27
2022-12-08T06:29:43.162Z,2.30
2022-12-08T06:32:36.480Z,2.23
2022-12-08T06:35:26.373Z,2.47
2022-12-08T06:38:16.098Z,2.33
2022-12-08T06:41:08.334Z,2.43
2022-12-08T06:43:57.989Z,2.60
2022-12-08T06:46:51.731Z,3.07
2022-12-08T06:49:46.028Z,2.90
2022-12-08T06:53:00.813Z,3.40
2022-12-08T06:55:59.784Z,2.83
2022-12-08T06:58:52.305Z,3.87
2022-12-08T07:01:51.878Z,4.20
2022-12-08T07:04:43.406Z,3.90
2022-12-08T07:07:36.859Z,4.60
2022-12-08T07:10:27.886Z,4.47
2022-12-08T07:13:19.231Z,4.33
2022-12-08T07:16:11.391Z,4.83
2022-12-08T07:19:02.668Z,5.70
2022-12-08T07:21:52.298Z,5.67
2022-12-08T07:24:40.950Z,5.00
2022-12-08T07:27:30.888Z,5.17
2022-12-08T07:30:21.223Z,4.73
2022-12-08T07:33:12.697Z,5.20
2022-12-08T07:36:04.470Z,5.20
2022-12-08T07:38:56.530Z,5.03
2022-12-08T07:41:53.908Z,4.47
2022-12-08T07:44:46.658Z,4.90
2022-12-08T07:47:36.871Z,4.80
2022-12-08T07:50:25.400Z,5.10
2022-12-08T07:53:14.410Z,5.07
2022-12-08T07:56:02.975Z,5.93
2022-12-08T07:58:56.875Z,5.73
2022-12-08T08:02:06.337Z,6.37
2022-12-08T08:04:59.533Z,6.20
2022-12-08T08:07:50.982Z,6.00
2022-12-08T08:10:39.581Z,6.60
2022-12-08T08:13:31.461Z,6.50
2022-12-08T08:16:20.683Z,5.50
2022-12-08T08:19:10.743Z,5.87
2022-12-08T08:22:02.245Z,6.00
2022-12-08T08:24:50.867Z,6.20
2022-12-08T08:27:41.111Z,6.30
2022-12-08T08:30:33.533Z,6.20
2022-12-08T08:33:23.371Z,5.63
2022-12-08T08:36:14.789Z,5.13
2022-12-08T08:39:08.084Z,5.57
2022-12-08T08:42:09.510Z,4.80
2022-12-08T08:44:58.059Z,4.27
2022-12-08T08:47:47.973Z,4.37
2022-12-08T08:50:39.530Z,4.90
2022-12-08T08:53:32.615Z,5.20
2022-12-08T08:56:21.607Z,4.30
2022-12-08T08:59:11.112Z,4.33
2022-12-08T09:02:00.880Z,4.43
2022-12-08T09:04:49.736Z,3.87
2022-12-08T09:07:38.389Z,4.07
2022-12-08T09:10:28.964Z,3.97
2022-12-08T09:13:17.518Z,4.20
2022-12-08T09:16:09.904Z,4.00
2022-12-08T09:18:58.522Z,4.20
2022-12-08T09:21:49.501Z,3.80
2022-12-08T09:24:39.815Z,3.93
2022-12-08T09:27:31.020Z,4.13
2022-12-08T09:30:21.492Z,4.83
2022-12-08T09:33:13.080Z,3.87
2022-12-08T09:36:05.263Z,4.10
2022-12-08T09:38:54.709Z,4.37
2022-12-08T09:41:48.573Z,4.53
2022-12-08T09:44:56.346Z,5.07
2022-12-08T09:48:00.164Z,4.20
2022-12-08T09:50:53.670Z,4.60
2022-12-08T09:53:53.405Z,4.20
2022-12-08T09:56:43.968Z,4.90
2022-12-08T09:59:36.239Z,4.50
2022-12-08T10:02:35.964Z,4.53
2022-12-08T10:05:29.801Z,4.80
2022-12-08T10:08:26.303Z,4.47
2022-12-08T10:11:17.004Z,4.53
2022-12-08T10:14:12.162Z,4.43
2022-12-08T10:17:03.121Z,4.60
2022-12-08T10:19:57.221Z,4.40
2022-12-08T10:22:48.527Z,4.30
2022-12-08T10:25:38.896Z,4.73
2022-12-08T10:28:27.473Z,4.33
2022-12-08T10:31:26.252Z,5.07
2022-12-08T10:34:26.033Z,4.33
2022-12-08T10:37:20.632Z,4.83
2022-12-08T10:40:14.948Z,4.40
2022-12-08T10:43:10.128Z,4.43
2022-12-08T10:46:09.415Z,4.40
2022-12-08T10:49:17.307Z,4.73
2022-12-08T10:52:10.745Z,5.23
2022-12-08T10:55:02.214Z,4.73
2022-12-08T10:57:52.062Z,4.40
2022-12-08T11:00:46.877Z,4.50
2022-12-08T11:03:40.415Z,4.57
2022-12-08T11:06:36.120Z,4.20
2022-12-08T11:09:31.957Z,3.93
2022-12-08T11:12:28.755Z,3.67
2022-12-08T11:15:23.847Z,4.00
2022-12-08T11:18:23.398Z,3.80
2022-12-08T11:21:13.267Z,3.70
2022-12-08T11:24:11.697Z,3.93
2022-12-08T11:27:02.453Z,4.60
2022-12-08T11:29:59.627Z,4.67
2022-12-08T11:32:59.592Z,4.03
2022-12-08T11:35:51.737Z,3.90
2022-12-08T11:38:43.996Z,4.30
2022-12-08T11:41:38.861Z,4.37
2022-12-08T11:44:35.157Z,4.63
2022-12-08T11:47:26.338Z,5.03
2022-12-08T11:50:20.013Z,4.30
2022-12-08T11:53:12.713Z,5.27
2022-12-08T11:56:07.246Z,4.77
2022-12-08T11:59:02.504Z,5.00
2022-12-08T12:01:51.262Z,5.47
2022-12-08T12:04:45.776Z,4.97
2022-12-08T12:07:48.489Z,4.90
2022-12-08T12:10:47.804Z,5.20
2022-12-08T12:13:43.613Z,5.57
2022-12-08T12:16:48.597Z,5.30
2022-12-08T12:19:44.023Z,5.70
2022-12-08T12:22:37.745Z,4.87
2022-12-08T12:25:30.255Z,5.00
2022-12-08T12:28:24.217Z,5.53
2022-12-08T12:31:15.292Z,5.57
2022-12-08T12:34:09.462Z,5.13
2022-12-08T12:37:06.833Z,5.20
2022-12-08T12:40:00.497Z,5.03
2022-12-08T12:42:50.806Z,5.73
2022-12-08T12:45:45.604Z,5.63
2022-12-08T12:48:34.265Z,6.10
2022-12-08T12:51:48.116Z,5.80
2022-12-08T12:54:36.691Z,5.50
2022-12-08T12:57:37.903Z,5.83
2022-12-08T13:00:40.415Z,5.53
2022-12-08T13:03:32.236Z,5.60
2022-12-08T13:06:25.414Z,5.57
2022-12-08T13:09:36.406Z,5.60
2022-12-08T13:12:26.291Z,7.33
2022-12-08T13:15:24.872Z,5.97
2022-12-08T13:18:23.659Z,6.63
2022-12-08T13:21:21.145Z,6.37
2022-12-08T13:24:19.860Z,6.50
2022-12-08T13:27:24.223Z,6.13
2022-12-08T13:30:34.065Z,6.40
2022-12-08T13:33:35.521Z,5.63
2022-12-08T13:36:31.096Z,5.63
2022-12-08T13:39:23.524Z,6.00
2022-12-08T13:42:17.648Z,5.03
2022-12-08T13:45:25.563Z,5.87
2022-12-08T13:49:18.538Z,6.03
2022-12-08T13:56:16.679Z,5.90
2022-12-08T13:58:07.127Z,5.60
2022-12-08T14:00:58.426Z,6.30
2022-12-08T14:04:12.749Z,5.50
2022-12-08T14:07:01.637Z,6.00
2022-12-08T14:09:52.160Z,6.27
2022-12-08T14:12:44.655Z,6.13
2022-12-08T14:15:39.535Z,5.40
2022-12-08T14:18:35.285Z,6.50
2022-12-08T14:21:36.564Z,5.90
2022-12-08T14:24:32.215Z,5.83
2022-12-08T14:27:32.153Z,6.43
2022-12-08T14:30:21.931Z,5.70
2022-12-08T14:33:22.520Z,5.63
2022-12-08T14:36:16.789Z,6.13
2022-12-08T14:39:05.428Z,6.63
2022-12-08T14:42:04.220Z,5.80
2022-12-08T14:45:00.650Z,5.63
2022-12-08T14:47:51.935Z,5.90
2022-12-08T14:50:43.382Z,6.50
2022-12-08T14:53:40.851Z,6.53
2022-12-08T14:56:35.914Z,6.40
2022-12-08T14:59:30.102Z,6.90
2022-12-08T15:02:34.549Z,5.97
2022-12-08T15:05:26.258Z,6.27
2022-12-08T15:08:20.154Z,5.73
2022-12-08T15:11:15.230Z,6.10
2022-12-08T15:14:05.115Z,7.03
2022-12-08T15:16:57.877Z,6.37
2022-12-08T15:19:56.732Z,6.23
2022-12-08T15:22:45.350Z,6.67
2022-12-08T15:25:36.743Z,7.10
2022-12-08T15:28:29.672Z,6.90
2022-12-08T15:31:21.253Z,6.43
2022-12-08T15:34:13.601Z,6.80
2022-12-08T15:37:02.184Z,7.80
2022-12-08T15:39:54.548Z,8.80
2022-12-08T15:42:43.139Z,8.27
2022-12-08T15:45:33.898Z,8.90
2022-12-08T15:48:24.147Z,7.33
2022-12-08T15:51:14.080Z,7.30
2022-12-08T15:54:04.710Z,8.57
2022-12-08T15:57:18.623Z,8.20
2022-12-08T16:00:15.388Z,8.50
2022-12-08T16:04:09.320Z,11.07
2022-12-08T16:07:19.668Z,10.30
2022-12-08T16:09:59.757Z,9.07
2022-12-08T16:16:22.583Z,9.90
2022-12-08T16:19:20.744Z,11.00
2022-12-08T16:22:51.793Z,10.70
2022-12-08T16:25:46.158Z,10.83
2022-12-08T16:28:53.939Z,9.60
2022-12-08T16:31:45.151Z,9.73
2022-12-08T16:34:33.769Z,10.50
2022-12-08T16:37:27.108Z,11.03
2022-12-08T16:40:17.352Z,11.40
2022-12-08T16:43:07.827Z,10.70
2022-12-08T16:45:58.558Z,9.97
2022-12-08T16:48:47.498Z,9.90
2022-12-08T16:51:36.152Z,9.20
2022-12-08T16:54:30.640Z,11.50
2022-12-08T16:57:19.196Z,8.97
2022-12-08T17:00:11.506Z,10.67
2022-12-08T17:03:00.424Z,11.87
2022-12-08T17:05:48.968Z,13.80
2022-12-08T17:08:39.991Z,13.10
2022-12-08T17:11:36.030Z,13.43
2022-12-08T17:14:30.545Z,14.20
2022-12-08T17:17:19.090Z,15.07
2022-12-08T17:20:09.433Z,14.93
2022-12-08T17:22:58.725Z,13.70
2022-12-08T17:25:58.636Z,13.57
2022-12-08T17:29:01.274Z,12.20
2022-12-08T17:31:52.319Z,13.50
2022-12-08T17:34:46.170Z,14.00
2022-12-08T17:37:46.461Z,13.63
2022-12-08T17:40:39.258Z,12.83
2022-12-08T17:43:27.925Z,13.50
2022-12-08T17:46:22.730Z,14.70
2022-12-08T17:49:11.616Z,13.00
2022-12-08T17:52:04.300Z,13.80
2022-12-08T17:54:52.885Z,12.90
2022-12-08T17:57:41.632Z,13.33
2022-12-08T18:00:31.968Z,12.37
2022-12-08T18:03:21.893Z,12.77
2022-12-08T18:06:14.052Z,15.57
2022-12-08T18:09:02.870Z,13.87
2022-12-08T18:11:51.444Z,13.67
2022-12-08T18:14:42.736Z,13.17
2022-12-08T18:17:31.369Z,13.40
2022-12-08T18:20:21.656Z,11.97
2022-12-08T18:23:10.215Z,12.30
2022-12-08T18:25:58.972Z,11.90
2022-12-08T18:28:48.914Z,12.30
2022-12-08T18:31:40.253Z,12.93
2022-12-08T18:37:09.562Z,13.30
2022-12-08T18:40:00.701Z,14.53
2022-12-08T18:42:52.738Z,12.50
2022-12-08T18:45:41.391Z,12.77
2022-12-08T18:48:31.903Z,13.27
2022-12-08T18:51:24.510Z,13.23
2022-12-08T18:54:16.798Z,14.00
2022-12-08T18:57:10.913Z,12.43
2022-12-08T19:00:02.560Z,13.57
2022-12-08T19:02:55.303Z,14.77
2022-12-08T19:05:45.137Z,14.67
2022-12-08T19:08:39.952Z,15.17
2022-12-08T19:11:30.127Z,16.03
2022-12-08T19:14:27.472Z,16.10
2022-12-08T19:17:18.697Z,16.17
2022-12-08T19:20:11.664Z,15.47
2022-12-08T19:23:04.651Z,15.50
2022-12-08T19:25:56.053Z,14.73
2022-12-08T19:28:48.295Z,15.23
2022-12-08T19:31:39.864Z,14.53
2022-12-08T19:34:30.049Z,13.47
2022-12-08T19:37:18.744Z,14.60
2022-12-08T19:40:25.600Z,13.97
2022-12-08T19:43:34.173Z,14.23
2022-12-08T19:46:25.245Z,12.83
2022-12-08T19:49:19.751Z,14.57
2022-12-08T19:52:10.086Z,14.33
2022-12-08T19:55:01.925Z,14.73
2022-12-08T19:57:50.650Z,14.43
2022-12-08T20:00:39.956Z,14.33
2022-12-08T20:03:30.941Z,14.77
2022-12-08T20:06:28.671Z,13.00
2022-12-08T20:09:19.243Z,14.00
2022-12-08T20:12:09.552Z,14.03
2022-12-08T20:15:01.100Z,15.20
2022-12-08T20:17:49.692Z,14.20
2022-12-08T20:20:41.668Z,15.63
2022-12-08T20:23:30.244Z,15.00
2022-12-08T20:26:21.415Z,14.60
2022-12-08T20:29:11.653Z,14.10
2022-12-08T20:32:02.528Z,13.80
2022-12-08T20:34:51.340Z,14.57
2022-12-08T20:37:45.759Z,14.73
2022-12-08T20:40:44.220Z,13.53
2022-12-08T20:43:32.819Z,15.03
2022-12-08T20:46:27.059Z,14.87
2022-12-08T20:49:15.852Z,15.80
2022-12-08T20:52:04.412Z,14.20
2022-12-08T20:54:54.413Z,15.57
2022-12-08T20:57:54.013Z,15.40
2022-12-08T21:00:45.367Z,15.20
2022-12-08T21:03:34.656Z,15.90
2022-12-08T21:06:24.457Z,14.57
2022-12-08T21:09:19.718Z,15.30
2022-12-08T21:12:17.927Z,13.53
2022-12-08T21:15:07.860Z,15.70
2022-12-08T21:17:59.535Z,16.27
2022-12-08T21:20:51.593Z,16.80
2022-12-08T21:23:44.724Z,16.10
2022-12-08T21:26:39.449Z,15.90
2022-12-08T21:29:32.790Z,15.10
2022-12-08T21:32:28.753Z,17.43
2022-12-08T21:35:19.255Z,14.97
2022-12-08T21:38:12.057Z,16.40
2022-12-08T21:41:03.503Z,17.10
2022-12-08T21:43:52.260Z,17.37
2022-12-08T21:46:47.066Z,18.03
2022-12-08T21:49:37.893Z,18.20
2022-12-08T21:52:28.877Z,19.10
2022-12-08T21:55:20.728Z,23.30
2022-12-08T21:58:11.885Z,19.77
2022-12-08T22:01:06.452Z,19.00
2022-12-08T22:04:00.969Z,17.60
2022-12-08T22:06:49.749Z,18.53
2022-12-08T22:09:38.696Z,17.73
2022-12-08T22:12:27.576Z,16.70
2022-12-08T22:15:18.246Z,16.23
2022-12-08T22:18:08.521Z,16.07
2022-12-08T22:20:59.824Z,15.17
2022-12-08T22:23:52.361Z,15.10
2022-12-08T22:26:42.914Z,14.27
2022-12-08T22:29:34.358Z,15.30
2022-12-08T22:32:23.366Z,14.90
2022-12-08T22:35:12.168Z,14.47
2022-12-08T22:38:10.046Z,15.10
2022-12-08T22:41:00.185Z,13.73
2022-12-08T22:43:54.160Z,13.90
2022-12-08T22:46:42.893Z,14.30
2022-12-08T22:49:35.744Z,15.40
2022-12-08T22:52:34.593Z,14.40
2022-12-08T22:55:24.667Z,15.37
2022-12-08T22:58:13.492Z,13.90
2022-12-08T23:01:03.888Z,14.83
2022-12-08T23:03:52.739Z,15.97
2022-12-08T23:06:41.432Z,15.53
2022-12-08T23:09:31.199Z,17.70
2022-12-08T23:12:25.887Z,17.20
2022-12-08T23:15:19.118Z,16.97
2022-12-08T23:18:07.994Z,16.30
2022-12-08T23:20:56.684Z,16.20
2022-12-08T23:23:45.271Z,14.00
2022-12-08T23:26:35.341Z,14.40
2022-12-08T23:29:26.933Z,14.90
2022-12-08T23:32:18.003Z,15.37
2022-12-08T23:35:07.164Z,13.83
2022-12-08T23:37:57.421Z,14.27
2022-12-08T23:40:46.002Z,14.07
2022-12-08T23:43:34.657Z,13.80
2022-12-08T23:46:27.583Z,15.00
2022-12-08T23:49:21.205Z,14.90
2022-12-08T23:52:16.070Z,15.30
2022-12-08T23:55:05.112Z,15.10
2022-12-08T23:58:02.610Z,16.80
